createdAt,value
2022-09-22T09:32:06.558Z,1019.42
2022-09-22T09:33:06.553Z,1019.41
2022-09-22T09:34:06.567Z,1019.39
2022-09-22T09:35:06.604Z,1019.38
2022-09-22T09:36:06.634Z,1019.38
2022-09-22T09:37:06.606Z,1019.33
2022-09-22T09:38:06.608Z,1019.35
2022-09-22T09:39:06.712Z,1019.39
2022-09-22T09:40:06.670Z,1019.36
2022-09-22T09:41:06.655Z,1019.36
2022-09-22T09:42:06.658Z,1019.34
2022-09-22T09:43:06.673Z,1019.35
2022-09-22T09:44:06.690Z,1019.37
2022-09-22T09:45:06.697Z,1019.34
2022-09-22T09:46:06.755Z,1019.34
2022-09-22T09:47:06.729Z,1019.31
2022-09-22T09:48:06.763Z,1019.33
2022-09-22T09:49:06.748Z,1019.33
2022-09-22T09:50:06.759Z,1019.31
2022-09-22T09:51:06.786Z,1019.29
2022-09-22T09:52:06.784Z,1019.31
2022-09-22T09:53:08.692Z,1019.32
2022-09-22T09:54:06.979Z,1019.26
2022-09-22T09:55:06.831Z,1019.30
2022-09-22T09:56:06.838Z,1019.28
2022-09-22T09:57:06.855Z,1019.20
2022-09-22T09:58:06.871Z,1019.21
2022-09-22T09:59:07.009Z,1019.20
2022-09-22T10:00:06.890Z,1019.19
2022-09-22T10:01:06.908Z,1019.16
2022-09-22T10:02:06.922Z,1019.15
2022-09-22T10:03:06.933Z,1019.14
2022-09-22T10:04:06.962Z,1019.17
2022-09-22T10:05:06.961Z,1019.13
2022-09-22T10:06:06.982Z,1019.16
2022-09-22T10:07:06.987Z,1019.16
2022-09-22T10:08:06.997Z,1019.15
2022-09-22T10:09:07.044Z,1019.16
2022-09-22T10:10:07.028Z,1019.11
2022-09-22T10:11:07.036Z,1019.14
2022-09-22T10:12:07.066Z,1019.12
2022-09-22T10:13:07.071Z,1019.10
2022-09-22T10:14:07.084Z,1019.11
2022-09-22T10:15:07.091Z,1019.13
2022-09-22T10:16:07.275Z,1019.10
2022-09-22T10:17:07.131Z,1019.10
2022-09-22T10:18:07.140Z,1019.07
2022-09-22T10:19:07.148Z,1019.09
2022-09-22T10:20:07.180Z,1019.06
2022-09-22T10:21:07.203Z,1019.08
2022-09-22T10:22:07.196Z,1019.08
2022-09-22T10:23:07.258Z,1019.10
2022-09-22T10:24:07.284Z,1019.08
2022-09-22T10:25:07.240Z,1019.03
2022-09-22T10:26:10.069Z,1019.03
2022-09-22T10:27:07.621Z,1019.01
2022-09-22T10:28:07.283Z,1018.99
2022-09-22T10:29:07.288Z,1018.96
2022-09-22T16:10:06.301Z,1016.41
2022-09-22T16:11:06.290Z,1016.45
2022-09-22T16:12:06.300Z,1016.41
2022-09-22T16:13:06.308Z,1016.42
2022-09-22T16:14:06.324Z,1016.45
2022-09-22T16:15:06.346Z,1016.46
2022-09-22T16:16:06.386Z,1016.41
2022-09-22T16:17:06.361Z,1016.41
2022-09-22T16:18:06.373Z,1016.42
2022-09-22T16:19:06.387Z,1016.40
2022-09-22T16:20:06.399Z,1016.42
2022-09-22T16:21:06.415Z,1016.41
2022-09-22T16:22:06.423Z,1016.43
2022-09-22T16:23:06.440Z,1016.43
2022-09-22T16:24:06.721Z,1016.45
2022-09-22T16:25:06.469Z,1016.40
2022-09-22T16:26:06.499Z,1016.44
2022-09-22T16:28:29.125Z,1016.44
2022-09-22T16:29:29.128Z,1016.43
2022-09-22T16:30:29.147Z,1016.46
2022-09-22T16:31:29.204Z,1016.46
2022-09-22T16:32:29.164Z,1016.43
2022-09-22T16:33:29.185Z,1016.45
2022-09-22T16:34:29.195Z,1016.43
2022-09-22T16:36:54.462Z,1016.47
2022-09-22T16:37:51.851Z,1016.45
2022-09-22T16:38:51.854Z,1016.44
2022-09-22T16:39:51.876Z,1016.45
2022-09-22T16:40:51.883Z,1016.47
2022-09-22T16:41:51.911Z,1016.46
2022-09-22T16:42:51.901Z,1016.47
2022-09-22T16:43:51.918Z,1016.47
2022-09-22T16:44:51.925Z,1016.50
2022-09-22T16:45:51.943Z,1016.47
2022-09-22T16:46:51.997Z,1016.49
2022-09-22T16:47:51.959Z,1016.46
2022-09-22T16:48:51.979Z,1016.48
2022-09-22T16:49:54.768Z,1016.52
2022-09-22T17:18:04.372Z,1016.47
2022-09-22T17:19:04.363Z,1016.43
2022-09-22T17:20:04.441Z,1016.40
2022-09-22T17:21:04.374Z,1016.41
2022-09-22T17:22:04.396Z,1016.40
2022-09-22T17:24:06.988Z,1016.40
